RCNN

Tainan Airport

Airport
ICAO code
RCNN
IATA Code
TNN
Summary
ICAO Region
APAC
ICAO Territory
Location

Tainan, Tainan

Serving
Tainan
Elevation
63 ft
Coordinates
22° 57' 1" N , 120° 12' 21" E
Metar
RCNN 242100Z 13002KT 9999 FEW012 SCT025 26/24 Q1011 NOSIG RMK A2986

Runways

Designator Length Width Surface Rops
18L/36R 3050 45 CON Yes/Yes
18R/36L 3050 45 CON Yes/Yes

Airport map

Aerial View

SKYbrary Partners:

Safety knowledge contributed by: